Leesburg, VA (20175)

23:38 EDT le 25 octobre 2014 (GMT -0400)
outside leesburg | Change Station
CLOSE
Current Station
Stations météorologiques personnelles
Location: Leesburg, VA
Altitude: 463 ft
Stations météo à proximité

Alt. 463 ft 39.08 °N, 77.61 °W | Updated 11 minutes ago

Clear
Ciel dégagé
48.6 ° F
Paraît 49 ° F
N
1.6
Vent Variable Vent de Ouest

Aujourd'hui
Haut(e) -- | Bas -- ° F
--% Risque de précip.
Hier
Haut(e) -- | Bas -- ° F
Precip. -- pouce
7:30 AM 6:18 PM
Lune montante, 5% visible
Pression 29.73 pouce
Visibilité 10.0 Miles terrestres
Nuages Ciel dégagé
Refroidissement éolien 49 ° F
Point de rosée 44 ° F
Humidité 84%
Précipitations 0.00 pouce
Profondeur de la couche neigeuse Non disponible.
UV 0 sur 12
Pollen 1.70 sur 12
Ozone Bon
PM2.5 Bon
Flu Activity Sporadic
METAR KJYO 260315Z AUTO 22007KT 10SM CLR 16/09 A2973 RMK AO2

More Conditions Fewer Conditions

Pression 29.73 pouce
Visibilité 10.0 Miles terrestres
Nuages Ciel dégagé
Refroidissement éolien 49 ° F
Point de rosée 44 ° F
Humidité 84%
Précipitations 0.00 pouce
Profondeur de la couche neigeuse Non disponible.
UV 0 sur 12
Pollen 1.70 sur 12
Ozone Bon
PM2.5 Bon
Flu Activity Sporadic
METAR KJYO 260315Z AUTO 22007KT 10SM CLR 16/09 A2973 RMK AO2

More Conditions Fewer Conditions

10-Day Weather Forecast

Almanac

Astronomie

Oct. 25, 2014 Lever Coucher
Temps réel 07:30 EDT 18:18 EDT
Crépuscule civil 07:02 EDT 18:45 EDT
Crépuscule nautique 06:31 EDT 19:16 EDT
Crépuscule astronomique 06:00 EDT 19:47 EDT
Lune 09:06 EDT (10/25) 19:40 EDT (10/25)
Durée de lumière visible 11h 42m
Longueur du jour
10h 47m
Tomorrow will be 2m 21s shorter.
Lune montante, 5% of the Moon is Illuminated
Aujourd'hui
Lune montante
Oct 30
Premier quartier
Nov 6
Pleine lune
Nov 14
Dernier quartier
Nov 22
Nouveau

Extrêmes aujourd'hui

State Highs State Lows

Community

WunderPhotos

Upload Photos

1,765,095 Photos téléchargées !

Nearby

Qualité de l'air

  Qualité de l'air Indice de la qualité de l'air Polluant
Hier Bon
OZONE
Hier Bon
PM10
Actuel Bon
PM2.5
Actuel Bon
OZONE
samedi Moyen
PM2.5
dimanche Bon
PM2.5
lundi Bon
PM2.5
mardi Bon
PM2.5
mercredi Bon
PM2.5

Épaisseur de neige

Station Depth Altitude
Pas de nouvelles chutes de neige

Activité sismique

Ville Distance Mag. Time & Date
No recent earthquake activity has been reported nearby.
Minimum magnitude displayed is 2.5.

Températures des eaux côtières

Lieu Température
Aucun rapport de station

Stations météo à proximité